Time;durP1;ratioP1;P1;durP2;ratioP2;P2;SDS_P1;SDS_P2;PMS_P1;PMS_P2;Temp;Humidity;BMP_temperature;BMP_pressure;BME280_temperature;BME280_humidity;BME280_pressure;Samples;Min_cycle;Max_cycle;Signal;HPM_P1;HPM_P2
2020/12/27 00:01:42;;;;;;;15.37;10.43;;;-1.70;80.40;;;;;;5128205;27;20632;-73
2020/12/27 00:04:09;;;;;;;13.23;10.30;;;-1.70;80.20;;;;;;5122768;28;20592;-72
2020/12/27 00:06:35;;;;;;;14.40;10.07;;;-1.80;79.00;;;;;;5124483;27;20480;-73
2020/12/27 00:09:02;;;;;;;13.23;9.30;;;-1.80;81.40;;;;;;5121294;27;20506;-73
2020/12/27 00:11:28;;;;;;;15.70;10.90;;;-1.70;82.00;;;;;;5128657;27;21331;-72
2020/12/27 00:13:55;;;;;;;14.83;9.93;;;-1.80;80.10;;;;;;5134867;27;20549;-72
2020/12/27 00:16:27;;;;;;;11.90;8.57;;;-1.80;80.50;;;;;;5136763;27;20454;-72
2020/12/27 00:18:54;;;;;;;16.33;10.07;;;-1.90;81.30;;;;;;5130674;27;20450;-72
2020/12/27 00:21:20;;;;;;;16.50;9.57;;;-1.90;81.60;;;;;;5130696;27;20553;-72
2020/12/27 00:23:47;;;;;;;14.77;9.23;;;-1.90;80.50;;;;;;5130015;27;20544;-72
2020/12/27 00:26:14;;;;;;;12.00;9.50;;;-1.80;81.30;;;;;;5129022;27;20489;-72
2020/12/27 00:28:46;;;;;;;13.20;9.07;;;-1.90;79.70;;;;;;5125046;27;20950;-72
2020/12/27 00:31:17;;;;;;;11.37;8.43;;;-2.00;79.40;;;;;;5130852;27;20548;-73
2020/12/27 00:33:47;;;;;;;9.77;8.53;;;-2.10;79.70;;;;;;5128619;27;20493;-72
2020/12/27 00:36:18;;;;;;;13.83;9.33;;;-2.10;80.50;;;;;;5129096;27;20445;-73
2020/12/27 00:38:44;;;;;;;14.47;9.23;;;-2.10;80.60;;;;;;5127767;27;20464;-73
2020/12/27 00:41:11;;;;;;;11.57;8.60;;;-2.10;80.20;;;;;;5126830;27;20861;-73
2020/12/27 00:43:37;;;;;;;12.80;9.03;;;-2.10;80.70;;;;;;5130496;27;20438;-73
2020/12/27 00:46:04;;;;;;;16.53;8.93;;;-2.10;80.70;;;;;;5124692;27;20542;-72
2020/12/27 00:48:31;;;;;;;14.53;9.23;;;-2.10;80.30;;;;;;5128062;27;20810;-73
2020/12/27 00:50:57;;;;;;;12.27;8.67;;;-2.10;80.60;;;;;;5124889;27;20474;-73
2020/12/27 00:53:24;;;;;;;13.87;8.80;;;-2.10;79.50;;;;;;5124486;27;20494;-74
2020/12/27 00:55:51;;;;;;;12.60;8.63;;;-2.10;79.20;;;;;;5125761;27;20469;-73
2020/12/27 00:58:18;;;;;;;11.37;8.90;;;-2.20;78.10;;;;;;5126143;27;20434;-72
2020/12/27 01:00:44;;;;;;;14.43;8.73;;;-2.20;79.00;;;;;;5127986;27;20463;-72
2020/12/27 01:03:10;;;;;;;12.83;8.50;;;-2.30;78.10;;;;;;5129002;27;21443;-73
2020/12/27 01:05:38;;;;;;;10.40;8.07;;;-2.30;77.60;;;;;;5125022;27;20497;-74
2020/12/27 01:08:04;;;;;;;12.13;7.80;;;-2.30;77.80;;;;;;5129512;27;20448;-72
2020/12/27 01:10:30;;;;;;;10.53;7.77;;;-2.30;77.90;;;;;;5127848;27;20545;-71
2020/12/27 01:12:57;;;;;;;12.73;8.00;;;-2.30;77.70;;;;;;5127523;27;20449;-71
2020/12/27 01:15:24;;;;;;;10.10;7.77;;;-2.40;77.70;;;;;;5124606;27;20838;-72
2020/12/27 01:17:59;;;;;;;10.87;7.90;;;-2.40;78.40;;;;;;5129291;27;20438;-72
2020/12/27 01:20:25;;;;;;;9.70;7.90;;;-2.50;77.80;;;;;;5129943;27;20468;-72
2020/12/27 01:22:55;;;;;;;12.30;7.40;;;-2.50;78.10;;;;;;5131662;27;20465;-72
2020/12/27 01:25:24;;;;;;;10.10;7.67;;;-2.50;78.00;;;;;;5130550;27;20451;-72
2020/12/27 01:27:51;;;;;;;11.40;7.27;;;-2.50;77.50;;;;;;5123753;27;20533;-72
2020/12/27 01:30:17;;;;;;;9.63;7.20;;;-2.50;77.40;;;;;;5131268;27;20452;-72
2020/12/27 01:32:46;;;;;;;10.43;7.43;;;-2.50;77.10;;;;;;5125700;27;20446;-72
2020/12/27 01:35:13;;;;;;;7.32;5.97;;;-2.50;77.40;;;;;;5127878;27;20481;-72
2020/12/27 01:37:42;;;;;;;11.53;7.77;;;-2.50;77.50;;;;;;5127770;27;20280;-72
2020/12/27 01:40:14;;;;;;;10.57;7.07;;;-2.60;76.80;;;;;;5136524;27;20450;-72
2020/12/27 01:42:41;;;;;;;9.40;7.13;;;-2.50;76.90;;;;;;5129860;27;20472;-72
2020/12/27 01:45:08;;;;;;;11.33;7.30;;;-2.50;76.50;;;;;;5128813;27;20189;-72
2020/12/27 01:47:37;;;;;;;8.13;6.32;;;-2.50;76.30;;;;;;5126736;27;20509;-72
2020/12/27 01:50:06;;;;;;;9.30;6.50;;;-2.50;76.30;;;;;;5129571;27;20196;-73
2020/12/27 01:52:36;;;;;;;7.73;6.20;;;-2.60;76.20;;;;;;5124986;27;20482;-72
2020/12/27 01:55:02;;;;;;;10.17;6.43;;;-2.60;76.20;;;;;;5125521;27;20438;-72
2020/12/27 01:58:02;;;;;;;11.63;7.30;;;-2.60;76.10;;;;;;5121501;27;20530;-72
2020/12/27 02:00:31;;;;;;;7.90;6.13;;;-2.60;76.00;;;;;;5128831;27;20854;-72
2020/12/27 02:03:00;;;;;;;10.50;6.50;;;-2.60;76.10;;;;;;5127656;27;20545;-71
2020/12/27 02:05:26;;;;;;;9.60;7.07;;;-2.60;76.10;;;;;;5131316;27;20507;-70
2020/12/27 02:07:53;;;;;;;9.43;5.90;;;-2.70;75.90;;;;;;5127125;27;20457;-71
2020/12/27 02:10:20;;;;;;;9.40;6.20;;;-2.70;75.80;;;;;;5129170;27;20482;-71
2020/12/27 02:12:47;;;;;;;7.00;5.20;;;-2.70;75.50;;;;;;5125423;27;20487;-72
2020/12/27 02:15:14;;;;;;;9.70;6.10;;;-2.70;75.30;;;;;;5122499;27;20494;-71
2020/12/27 02:17:42;;;;;;;9.70;7.23;;;-2.70;75.40;;;;;;5126545;27;20536;-72
2020/12/27 02:20:09;;;;;;;10.90;6.47;;;-2.70;75.50;;;;;;5127741;27;20477;-72
2020/12/27 02:22:35;;;;;;;7.83;6.13;;;-2.70;75.20;;;;;;5128780;27;20476;-71
2020/12/27 02:25:08;;;;;;;8.67;6.23;;;-2.70;75.00;;;;;;5125357;27;20856;-71
2020/12/27 02:27:35;;;;;;;7.83;5.87;;;-2.70;75.30;;;;;;5125683;27;20493;-71
2020/12/27 02:30:04;;;;;;;8.50;5.93;;;-2.70;75.30;;;;;;5125594;27;20484;-71
2020/12/27 02:32:33;;;;;;;11.73;6.90;;;-2.70;75.00;;;;;;5124020;27;20478;-71
2020/12/27 02:35:00;;;;;;;10.13;6.50;;;-2.70;74.70;;;;;;5124055;27;20476;-71
2020/12/27 02:37:26;;;;;;;10.10;6.20;;;-2.80;74.60;;;;;;5125728;27;20469;-71
2020/12/27 02:39:54;;;;;;;9.43;6.07;;;-2.70;74.80;;;;;;5123757;27;20446;-71
2020/12/27 02:42:22;;;;;;;7.13;6.00;;;-2.70;74.30;;;;;;5128317;27;20523;-71
2020/12/27 02:47:34;;;;;;;8.90;6.37;;;-2.70;74.20;;;;;;5121596;27;21003;-71
2020/12/27 02:50:00;;;;;;;7.47;5.23;;;-2.60;73.90;;;;;;5124139;27;20453;-71
2020/12/27 02:52:27;;;;;;;6.67;5.27;;;-2.70;73.70;;;;;;5126973;27;20588;-71
2020/12/27 02:54:59;;;;;;;10.00;5.73;;;-2.70;73.70;;;;;;5118892;27;20465;-71
2020/12/27 02:57:26;;;;;;;7.10;5.37;;;-2.70;73.70;;;;;;5125552;27;20580;-71
2020/12/27 02:59:52;;;;;;;5.70;4.63;;;-2.70;73.50;;;;;;5124248;27;20447;-71
2020/12/27 03:02:19;;;;;;;5.43;4.93;;;-2.70;73.40;;;;;;5127764;27;20846;-71
2020/12/27 03:04:48;;;;;;;6.70;5.17;;;-2.70;73.50;;;;;;5126314;27;20481;-71
2020/12/27 03:07:14;;;;;;;8.10;5.07;;;-2.70;73.40;;;;;;5126550;27;20446;-71
2020/12/27 03:09:53;;;;;;;7.97;5.80;;;-2.70;73.40;;;;;;5128432;27;20553;-71
2020/12/27 03:12:21;;;;;;;5.20;4.60;;;-2.70;73.50;;;;;;5125944;27;20472;-70
2020/12/27 03:14:49;;;;;;;7.40;5.40;;;-2.70;73.40;;;;;;5122828;27;20995;-71
2020/12/27 03:17:15;;;;;;;6.03;5.40;;;-2.70;73.30;;;;;;5120668;27;20442;-71
2020/12/27 03:19:43;;;;;;;6.80;4.77;;;-2.80;73.20;;;;;;5121249;27;20475;-72
2020/12/27 03:22:10;;;;;;;8.57;5.97;;;-2.70;73.50;;;;;;5123372;27;20472;-71
2020/12/27 03:24:39;;;;;;;6.30;5.23;;;-2.80;73.20;;;;;;5124822;27;20469;-72
2020/12/27 03:27:05;;;;;;;6.30;5.40;;;-2.70;73.70;;;;;;5122424;27;20818;-72
2020/12/27 03:29:32;;;;;;;8.75;6.30;;;-2.70;73.60;;;;;;5126563;27;20454;-71
2020/12/27 03:31:59;;;;;;;7.83;5.00;;;-2.70;73.60;;;;;;5122550;27;20686;-71
2020/12/27 03:34:25;;;;;;;7.70;6.57;;;-2.70;73.20;;;;;;5126554;27;20466;-70
2020/12/27 03:36:52;;;;;;;10.43;6.43;;;-2.80;73.60;;;;;;5123780;27;20533;-70
2020/12/27 03:39:22;;;;;;;7.57;6.20;;;-2.70;73.50;;;;;;5127704;27;20449;-71
2020/12/27 03:41:49;;;;;;;8.63;6.40;;;-2.70;73.80;;;;;;5123031;27;20516;-71
2020/12/27 03:44:15;;;;;;;6.43;5.30;;;-2.70;73.30;;;;;;5126805;27;20442;-71
2020/12/27 03:46:41;;;;;;;8.97;5.57;;;-2.70;73.50;;;;;;5126332;27;20286;-70
2020/12/27 03:49:13;;;;;;;10.13;6.55;;;-2.70;73.60;;;;;;5127950;27;20458;-70
2020/12/27 03:51:45;;;;;;;7.80;5.63;;;-2.70;73.50;;;;;;5126319;27;20324;-71
2020/12/27 03:54:11;;;;;;;6.47;4.97;;;-2.70;73.30;;;;;;5122636;27;20474;-72
2020/12/27 03:56:38;;;;;;;9.53;5.37;;;-2.70;73.30;;;;;;5122502;27;20514;-70
2020/12/27 03:59:04;;;;;;;8.73;5.97;;;-2.70;73.40;;;;;;5124866;27;20531;-70
2020/12/27 04:01:33;;;;;;;7.10;5.57;;;-2.70;73.40;;;;;;5126521;27;20449;-71
2020/12/27 04:03:59;;;;;;;8.30;5.90;;;-2.80;73.20;;;;;;5124980;27;20555;-72
2020/12/27 04:06:28;;;;;;;7.50;5.67;;;-2.80;73.30;;;;;;5127081;27;20564;-70
2020/12/27 04:08:55;;;;;;;7.43;5.30;;;-2.80;73.50;;;;;;5124845;27;21085;-70
2020/12/27 04:11:22;;;;;;;7.72;5.72;;;-2.80;73.40;;;;;;5127746;27;20481;-70
2020/12/27 04:13:48;;;;;;;7.50;5.50;;;-2.80;73.70;;;;;;5126723;27;20228;-70
2020/12/27 04:16:14;;;;;;;6.97;5.30;;;-2.80;73.60;;;;;;5128513;27;20478;-70
2020/12/27 04:18:41;;;;;;;6.80;5.77;;;-2.80;73.70;;;;;;5125037;27;20449;-70
2020/12/27 04:21:07;;;;;;;10.13;6.73;;;-2.80;73.70;;;;;;5128937;27;20450;-70
2020/12/27 04:23:34;;;;;;;8.63;5.90;;;-2.80;73.70;;;;;;5124038;27;20505;-70
2020/12/27 04:26:01;;;;;;;11.13;6.10;;;-2.80;73.70;;;;;;5124775;27;21027;-70
2020/12/27 04:28:27;;;;;;;8.30;5.70;;;-2.80;73.80;;;;;;5124284;27;20823;-70
2020/12/27 04:30:54;;;;;;;6.57;5.77;;;-2.80;74.00;;;;;;5127539;27;20478;-70
2020/12/27 04:33:21;;;;;;;7.10;6.17;;;-2.80;74.00;;;;;;5124647;27;20546;-70
2020/12/27 04:35:49;;;;;;;8.20;6.33;;;-2.90;73.70;;;;;;5126433;27;20450;-71
2020/12/27 04:38:15;;;;;;;10.30;6.57;;;-2.90;73.90;;;;;;5125204;27;20509;-71
2020/12/27 04:40:48;;;;;;;6.87;6.17;;;-2.90;73.80;;;;;;5128805;27;20474;-71
2020/12/27 04:43:14;;;;;;;6.80;6.10;;;-2.90;73.80;;;;;;5127313;27;20495;-71
2020/12/27 04:45:41;;;;;;;10.70;7.07;;;-2.80;73.80;;;;;;5124833;27;20498;-71
2020/12/27 04:48:08;;;;;;;10.77;7.07;;;-2.80;74.10;;;;;;5124296;27;20723;-70
2020/12/27 04:50:35;;;;;;;9.67;6.27;;;-2.80;74.10;;;;;;5123959;27;20442;-70
2020/12/27 04:53:01;;;;;;;9.53;6.37;;;-2.80;74.00;;;;;;5125952;27;20502;-70
2020/12/27 04:55:28;;;;;;;8.40;6.13;;;-2.80;74.20;;;;;;5123285;27;20469;-71
2020/12/27 04:57:59;;;;;;;8.80;6.47;;;-2.80;74.10;;;;;;5127136;27;20466;-71
2020/12/27 05:00:25;;;;;;;7.27;5.63;;;-2.80;74.10;;;;;;5129319;27;20514;-70
2020/12/27 05:02:54;;;;;;;8.77;6.30;;;-2.80;73.90;;;;;;5128064;27;20457;-72
2020/12/27 05:05:21;;;;;;;8.07;6.50;;;-2.70;73.70;;;;;;5127699;27;20450;-70
2020/12/27 05:07:47;;;;;;;8.50;5.50;;;-2.70;73.70;;;;;;5130287;27;20445;-71
2020/12/27 05:10:13;;;;;;;7.83;6.23;;;-2.70;73.50;;;;;;5129086;27;20457;-70
2020/12/27 05:12:40;;;;;;;7.90;6.30;;;-2.70;73.60;;;;;;5131672;27;20847;-70
2020/12/27 05:15:07;;;;;;;7.03;6.33;;;-2.70;73.40;;;;;;5129088;27;20450;-71
2020/12/27 05:17:35;;;;;;;9.60;6.37;;;-2.70;73.30;;;;;;5128829;27;20546;-71
2020/12/27 05:20:13;;;;;;;6.93;6.13;;;-2.60;73.40;;;;;;5126954;27;20477;-71
2020/12/27 05:22:41;;;;;;;7.67;6.13;;;-2.60;73.40;;;;;;5131355;27;20484;-71
2020/12/27 05:25:08;;;;;;;7.17;6.00;;;-2.60;73.00;;;;;;5123851;27;20469;-71
2020/12/27 05:27:42;;;;;;;9.65;7.38;;;-2.60;73.00;;;;;;5131605;27;20438;-71
2020/12/27 05:30:10;;;;;;;6.93;6.20;;;-2.60;73.00;;;;;;5127743;27;20200;-70
2020/12/27 05:32:36;;;;;;;11.00;6.43;;;-2.60;73.30;;;;;;5127496;27;20442;-70
2020/12/27 05:35:10;;;;;;;6.53;5.90;;;-2.60;73.10;;;;;;5125790;27;20469;-70
2020/12/27 05:37:38;;;;;;;7.13;5.78;;;-2.50;73.20;;;;;;5126790;27;21384;-70
2020/12/27 05:40:06;;;;;;;8.53;6.80;;;-2.60;73.10;;;;;;5135488;27;20552;-70
2020/12/27 05:42:32;;;;;;;6.30;5.70;;;-2.60;72.70;;;;;;5131356;27;20554;-71
2020/12/27 05:45:11;;;;;;;6.93;6.17;;;-2.60;72.80;;;;;;5131044;27;20446;-72
2020/12/27 05:47:40;;;;;;;10.17;5.93;;;-2.50;72.80;;;;;;5121277;27;20976;-72
2020/12/27 05:50:12;;;;;;;7.80;7.00;;;-2.60;72.80;;;;;;5129952;27;20449;-71
2020/12/27 05:52:45;;;;;;;9.87;6.97;;;-2.60;72.70;;;;;;5128418;27;20519;-72
2020/12/27 05:55:18;;;;;;;7.07;6.47;;;-2.60;72.70;;;;;;5128660;27;20817;-72
2020/12/27 05:57:49;;;;;;;10.93;6.57;;;-2.60;73.10;;;;;;5123925;27;20457;-71
2020/12/27 06:00:25;;;;;;;8.43;6.03;;;-2.60;72.80;;;;;;5126687;27;21020;-71
2020/12/27 06:03:01;;;;;;;8.87;6.77;;;-2.60;72.80;;;;;;5120541;27;20587;-70
2020/12/27 06:06:11;;;;;;;7.40;6.30;;;-2.60;72.90;;;;;;5127746;27;20536;-71
2020/12/27 06:09:04;;;;;;;9.80;6.83;;;-2.70;72.70;;;;;;5123908;27;20481;-71
2020/12/27 06:11:54;;;;;;;8.73;6.80;;;-2.70;72.70;;;;;;5119677;27;20489;-71
2020/12/27 06:14:42;;;;;;;7.90;6.20;;;-2.60;72.60;;;;;;5130089;27;20448;-71
2020/12/27 06:17:14;;;;;;;8.70;6.50;;;-2.60;72.50;;;;;;5125586;27;20449;-71
2020/12/27 06:19:57;;;;;;;8.77;6.37;;;-2.60;72.80;;;;;;5125662;27;20465;-72
2020/12/27 06:22:31;;;;;;;9.20;7.23;;;-2.60;72.30;;;;;;5127383;27;20563;-71
2020/12/27 06:24:59;;;;;;;8.87;6.17;;;-2.60;72.30;;;;;;5129794;27;20539;-70
2020/12/27 06:27:27;;;;;;;8.33;6.77;;;-2.70;72.50;;;;;;5126250;27;20450;-70
2020/12/27 06:29:59;;;;;;;8.07;6.63;;;-2.70;72.50;;;;;;5127071;27;20525;-71
2020/12/27 06:32:30;;;;;;;8.33;5.80;;;-2.70;73.00;;;;;;5125718;27;21219;-72
2020/12/27 06:34:57;;;;;;;8.87;6.70;;;-2.70;72.50;;;;;;5122922;27;20462;-71
2020/12/27 06:37:24;;;;;;;9.93;5.93;;;-2.70;72.80;;;;;;5125964;27;20500;-71
2020/12/27 06:39:50;;;;;;;8.47;6.40;;;-2.80;72.50;;;;;;5123828;27;20450;-70
2020/12/27 06:42:18;;;;;;;8.20;6.27;;;-2.80;72.40;;;;;;5127993;27;20519;-70
2020/12/27 06:44:47;;;;;;;7.70;6.00;;;-2.80;72.20;;;;;;5122140;27;21240;-71
2020/12/27 06:47:14;;;;;;;7.10;5.80;;;-2.80;72.20;;;;;;5126401;27;20449;-71
2020/12/27 06:49:41;;;;;;;6.40;5.03;;;-2.80;72.20;;;;;;5124204;27;20536;-71
2020/12/27 06:52:21;;;;;;;8.27;5.80;;;-2.70;71.90;;;;;;5128586;27;20457;-71
2020/12/27 06:54:48;;;;;;;5.95;5.35;;;-2.70;71.70;;;;;;5125185;27;20534;-70
2020/12/27 06:57:38;;;;;;;8.90;6.00;;;-2.70;71.60;;;;;;5127396;27;20200;-72
2020/12/27 07:00:25;;;;;;;7.37;5.40;;;-2.70;71.70;;;;;;5120851;27;20526;-72
2020/12/27 07:03:07;;;;;;;7.68;5.35;;;-2.70;71.50;;;;;;5125138;27;20496;-72
2020/12/27 07:05:34;;;;;;;6.30;5.10;;;-2.70;71.40;;;;;;5124467;27;20206;-72
2020/12/27 07:08:03;;;;;;;6.33;5.33;;;-2.70;71.20;;;;;;5121663;27;20434;-72
2020/12/27 07:10:31;;;;;;;5.90;4.53;;;-2.70;71.10;;;;;;5122380;27;20483;-73
2020/12/27 07:13:06;;;;;;;4.90;4.50;;;-2.70;71.40;;;;;;5122877;27;20516;-72
2020/12/27 07:15:33;;;;;;;5.60;4.70;;;-2.70;70.90;;;;;;5123091;27;20567;-72
2020/12/27 07:18:09;;;;;;;6.57;4.47;;;-2.60;70.90;;;;;;5126285;27;21095;-71
2020/12/27 07:20:38;;;;;;;10.10;5.00;;;-2.60;70.40;;;;;;5121927;27;20482;-72
2020/12/27 07:23:18;;;;;;;5.40;4.50;;;-2.60;70.30;;;;;;5126294;27;20469;-73
2020/12/27 07:25:44;;;;;;;5.60;4.93;;;-2.60;70.20;;;;;;5122926;27;20599;-72
2020/12/27 07:28:12;;;;;;;5.67;5.07;;;-2.60;70.00;;;;;;5124262;27;20499;-72
2020/12/27 07:30:39;;;;;;;9.43;5.67;;;-2.60;69.70;;;;;;5125900;27;20450;-72
2020/12/27 07:33:11;;;;;;;5.53;4.53;;;-2.50;69.90;;;;;;5129240;27;20498;-72
2020/12/27 07:35:37;;;;;;;5.83;4.90;;;-2.50;69.60;;;;;;5125850;27;20501;-73
2020/12/27 07:38:09;;;;;;;4.83;4.20;;;-2.40;69.50;;;;;;5130069;27;20478;-72
2020/12/27 07:40:37;;;;;;;4.70;4.30;;;-2.40;69.40;;;;;;5126198;27;20544;-71
2020/12/27 07:43:08;;;;;;;7.97;5.10;;;-2.40;69.10;;;;;;5123760;27;20535;-71
2020/12/27 07:45:35;;;;;;;5.50;4.40;;;-2.40;69.10;;;;;;5123539;27;20447;-73
2020/12/27 07:48:01;;;;;;;5.93;4.63;;;-2.30;68.90;;;;;;5124998;27;20511;-71
2020/12/27 07:50:30;;;;;;;5.60;4.60;;;-2.20;69.30;;;;;;5126255;27;20811;-71
2020/12/27 07:52:58;;;;;;;6.23;4.53;;;-2.20;68.60;;;;;;5121933;27;20477;-71
2020/12/27 07:55:26;;;;;;;6.60;4.30;;;-2.10;68.30;;;;;;5121879;27;21053;-73
2020/12/27 07:57:55;;;;;;;4.90;4.20;;;-2.00;68.50;;;;;;5117812;27;20450;-72
2020/12/27 08:00:23;;;;;;;6.23;4.00;;;-2.00;68.10;;;;;;5121277;27;21056;-72
2020/12/27 08:02:50;;;;;;;5.50;4.80;;;-2.00;67.90;;;;;;5123865;27;20549;-72
2020/12/27 08:05:17;;;;;;;4.80;4.30;;;-2.00;68.20;;;;;;5124691;27;20457;-73
2020/12/27 08:07:45;;;;;;;6.87;4.70;;;-2.10;67.90;;;;;;5119570;27;20545;-72
2020/12/27 08:10:27;;;;;;;6.60;4.87;;;-2.10;67.80;;;;;;5124558;27;20541;-73
2020/12/27 08:12:56;;;;;;;6.10;5.30;;;-2.00;68.10;;;;;;5120464;27;20458;-72
2020/12/27 08:15:23;;;;;;;5.03;4.07;;;-2.10;67.70;;;;;;5127462;27;20452;-72
2020/12/27 08:17:57;;;;;;;8.40;4.90;;;-2.00;67.60;;;;;;5124363;27;20469;-72
2020/12/27 08:20:24;;;;;;;4.90;4.40;;;-2.00;67.80;;;;;;5125644;27;21207;-72
2020/12/27 08:23:02;;;;;;;6.50;4.70;;;-1.90;67.70;;;;;;5123201;27;20606;-72
2020/12/27 08:25:28;;;;;;;6.20;5.00;;;-1.90;67.70;;;;;;5122870;27;20545;-73
2020/12/27 08:27:57;;;;;;;6.13;5.20;;;-1.80;67.50;;;;;;5121191;27;20457;-72
2020/12/27 08:30:24;;;;;;;4.73;4.33;;;-1.80;67.60;;;;;;5122160;27;20444;-72
2020/12/27 08:33:12;;;;;;;4.90;4.40;;;-1.80;67.50;;;;;;5122577;27;21023;-73
2020/12/27 08:35:45;;;;;;;4.93;4.20;;;-1.70;67.50;;;;;;5125899;27;20460;-72
2020/12/27 08:38:29;;;;;;;6.47;5.37;;;-1.70;67.30;;;;;;5122698;27;20799;-73
2020/12/27 08:41:19;;;;;;;6.00;5.40;;;-1.70;67.10;;;;;;5130122;27;20525;-72
2020/12/27 08:44:20;;;;;;;6.73;5.10;;;-1.60;67.10;;;;;;5126107;27;20485;-72
2020/12/27 08:46:51;;;;;;;4.97;4.10;;;-1.60;66.80;;;;;;5126301;27;20949;-72
2020/12/27 08:49:30;;;;;;;6.93;5.17;;;-1.50;66.80;;;;;;5124415;27;20506;-73
2020/12/27 08:52:04;;;;;;;5.53;5.00;;;-1.40;66.80;;;;;;5126152;27;20454;-72
2020/12/27 08:54:32;;;;;;;6.60;4.63;;;-1.40;66.80;;;;;;5123578;27;20438;-72
2020/12/27 08:57:01;;;;;;;7.10;4.43;;;-1.40;66.40;;;;;;5125740;27;20484;-72
2020/12/27 08:59:28;;;;;;;4.47;4.03;;;-1.30;66.40;;;;;;5123444;27;20555;-72
2020/12/27 09:01:58;;;;;;;4.67;4.00;;;-1.30;66.30;;;;;;5127479;27;20438;-73
2020/12/27 09:04:26;;;;;;;6.40;4.23;;;-1.20;66.20;;;;;;5123881;27;20561;-73
2020/12/27 09:06:55;;;;;;;7.33;5.00;;;-1.20;66.10;;;;;;5124759;27;20851;-73
2020/12/27 09:09:21;;;;;;;4.13;3.80;;;-1.20;65.80;;;;;;5126173;27;20539;-72
2020/12/27 09:11:48;;;;;;;5.30;4.70;;;-1.10;65.80;;;;;;5132074;27;20445;-72
2020/12/27 09:14:35;;;;;;;6.10;4.67;;;-1.10;66.10;;;;;;5127602;27;20500;-72
2020/12/27 09:17:04;;;;;;;6.50;4.60;;;-1.00;65.60;;;;;;5129813;27;20456;-72
2020/12/27 09:19:34;;;;;;;4.93;4.03;;;-0.90;65.50;;;;;;5120171;27;20468;-71
2020/12/27 09:22:04;;;;;;;4.57;3.97;;;-0.90;65.40;;;;;;5127426;27;20527;-73
2020/12/27 09:24:30;;;;;;;6.07;5.00;;;-0.80;65.20;;;;;;5121870;27;20438;-72
2020/12/27 09:27:07;;;;;;;7.33;4.20;;;-0.70;65.20;;;;;;5126819;27;20477;-73
2020/12/27 09:29:37;;;;;;;7.63;4.63;;;-0.70;65.30;;;;;;5124643;27;20457;-74
2020/12/27 09:32:11;;;;;;;5.70;4.40;;;-0.60;65.30;;;;;;5129139;27;20502;-72
2020/12/27 09:34:40;;;;;;;5.73;4.13;;;-0.60;64.90;;;;;;5126842;27;20529;-71
2020/12/27 09:37:17;;;;;;;5.07;4.00;;;-0.50;64.60;;;;;;5124189;27;20520;-74
2020/12/27 09:39:45;;;;;;;6.07;4.40;;;-0.40;65.10;;;;;;5125213;27;20489;-73
2020/12/27 09:42:22;;;;;;;5.03;3.83;;;-0.40;64.50;;;;;;5121815;27;20453;-72
2020/12/27 09:44:53;;;;;;;6.00;4.40;;;-0.30;64.50;;;;;;5131296;27;20878;-71
2020/12/27 09:47:26;;;;;;;5.27;3.80;;;-0.30;64.20;;;;;;5125392;27;22510;-72
2020/12/27 09:50:01;;;;;;;5.70;3.93;;;-0.20;64.20;;;;;;5129933;27;20447;-73
2020/12/27 09:52:27;;;;;;;4.63;3.73;;;-0.10;64.20;;;;;;5126369;27;20452;-73
2020/12/27 09:54:53;;;;;;;4.20;3.23;;;-0.10;63.80;;;;;;5125003;27;20442;-73
2020/12/27 09:57:21;;;;;;;6.20;4.10;;;-0.10;63.10;;;;;;5125402;27;20451;-72
2020/12/27 09:59:50;;;;;;;4.77;4.37;;;-0.10;63.10;;;;;;5128792;27;20494;-72
2020/12/27 10:02:17;;;;;;;5.97;4.17;;;0.00;63.00;;;;;;5121255;27;20451;-72
2020/12/27 10:04:44;;;;;;;4.97;4.03;;;0.10;63.00;;;;;;5125066;27;21025;-73
2020/12/27 10:07:10;;;;;;;4.30;3.40;;;0.10;62.40;;;;;;5120975;27;21021;-72
2020/12/27 10:09:37;;;;;;;5.33;3.20;;;0.10;61.80;;;;;;5123251;27;20451;-72
2020/12/27 10:12:04;;;;;;;4.30;3.77;;;0.10;61.30;;;;;;5121502;27;20598;-72
2020/12/27 10:14:32;;;;;;;5.63;4.10;;;0.30;61.20;;;;;;5124228;27;21635;-73
2020/12/27 10:17:01;;;;;;;4.73;4.17;;;0.40;61.00;;;;;;5119007;27;20867;-73
2020/12/27 10:19:28;;;;;;;5.07;4.20;;;0.50;60.70;;;;;;5123284;27;20461;-73
2020/12/27 10:21:55;;;;;;;3.90;3.50;;;0.60;60.20;;;;;;5119111;27;20982;-73
2020/12/27 10:24:23;;;;;;;3.33;3.00;;;0.60;59.80;;;;;;5125050;27;21068;-73
2020/12/27 10:26:50;;;;;;;6.13;2.83;;;0.60;59.80;;;;;;5121650;27;21006;-73
2020/12/27 10:29:17;;;;;;;4.23;3.53;;;0.60;59.80;;;;;;5122792;27;20453;-73
2020/12/27 10:31:49;;;;;;;5.90;3.80;;;0.70;59.70;;;;;;5124783;27;20472;-74
2020/12/27 10:34:19;;;;;;;5.60;4.37;;;0.80;59.40;;;;;;5120074;27;20477;-74
2020/12/27 10:36:49;;;;;;;5.73;3.70;;;0.80;59.20;;;;;;5119976;27;20444;-74
2020/12/27 10:39:16;;;;;;;5.10;3.80;;;0.90;58.80;;;;;;5119840;27;20457;-74
2020/12/27 10:41:46;;;;;;;4.10;3.40;;;1.00;58.60;;;;;;5126864;27;21067;-73
2020/12/27 10:44:13;;;;;;;5.27;3.40;;;1.00;58.70;;;;;;5123309;27;20474;-72
2020/12/27 10:46:39;;;;;;;4.70;3.73;;;1.10;57.70;;;;;;5125835;27;20467;-73
2020/12/27 10:49:06;;;;;;;4.83;3.30;;;1.10;57.50;;;;;;5123945;27;20455;-75
2020/12/27 10:51:35;;;;;;;3.17;2.80;;;1.20;57.30;;;;;;5121772;27;20460;-73
2020/12/27 10:54:02;;;;;;;3.07;2.77;;;1.30;57.20;;;;;;5117921;27;20483;-75
2020/12/27 10:56:28;;;;;;;3.37;3.07;;;1.40;56.90;;;;;;5122908;27;20453;-72
2020/12/27 10:58:55;;;;;;;3.50;3.17;;;1.30;56.10;;;;;;5124397;27;20460;-77
2020/12/27 11:01:22;;;;;;;4.17;3.20;;;1.40;56.50;;;;;;5128241;27;20992;-76
2020/12/27 11:03:48;;;;;;;2.90;2.60;;;1.60;56.00;;;;;;5126612;27;20483;-77
2020/12/27 11:06:15;;;;;;;4.33;2.70;;;1.60;55.90;;;;;;5126201;27;20451;-76
2020/12/27 11:08:42;;;;;;;3.30;3.00;;;1.60;55.30;;;;;;5120970;27;20519;-78
2020/12/27 11:11:09;;;;;;;5.60;2.77;;;1.50;55.20;;;;;;5125885;27;20450;-77
2020/12/27 11:13:36;;;;;;;2.67;2.37;;;1.50;55.20;;;;;;5126578;27;20492;-78
2020/12/27 11:16:04;;;;;;;3.30;2.73;;;1.60;55.60;;;;;;5135933;27;20471;-76
2020/12/27 11:18:31;;;;;;;6.27;2.67;;;1.70;55.10;;;;;;5132898;27;20447;-77
2020/12/27 11:20:57;;;;;;;3.37;3.07;;;1.70;55.20;;;;;;5128771;27;20492;-77
2020/12/27 11:23:26;;;;;;;3.50;2.60;;;1.70;55.20;;;;;;5127832;27;20489;-76
2020/12/27 11:25:53;;;;;;;3.50;2.90;;;1.70;54.80;;;;;;5125659;27;21080;-76
2020/12/27 11:28:20;;;;;;;3.63;3.07;;;1.70;54.80;;;;;;5126819;27;20458;-78
2020/12/27 11:30:46;;;;;;;9.60;2.90;;;1.70;55.00;;;;;;5131584;27;20548;-78
2020/12/27 11:33:13;;;;;;;3.00;2.67;;;1.80;54.90;;;;;;5133630;27;20454;-78
2020/12/27 11:35:39;;;;;;;2.90;2.70;;;1.90;54.90;;;;;;5131516;27;21114;-77
2020/12/27 11:38:07;;;;;;;3.90;2.63;;;1.70;54.40;;;;;;5109722;27;20503;-77
2020/12/27 11:40:34;;;;;;;2.90;2.47;;;1.80;54.30;;;;;;5126986;27;20458;-77
2020/12/27 11:43:01;;;;;;;2.77;2.50;;;1.80;54.50;;;;;;5128932;27;20485;-77
2020/12/27 11:45:32;;;;;;;3.10;2.67;;;1.70;54.30;;;;;;5132708;27;20528;-77
2020/12/27 11:47:59;;;;;;;3.50;3.20;;;1.80;54.30;;;;;;5128105;27;20510;-77
2020/12/27 11:50:25;;;;;;;4.10;2.83;;;1.80;54.10;;;;;;5129017;27;20455;-76
2020/12/27 11:52:52;;;;;;;2.87;2.53;;;1.70;54.20;;;;;;5127775;27;20498;-76
2020/12/27 11:55:18;;;;;;;3.00;2.70;;;1.90;54.50;;;;;;5124012;27;20491;-77
2020/12/27 11:57:48;;;;;;;3.67;2.53;;;1.70;53.80;;;;;;5120208;28;20451;-78
2020/12/27 12:00:19;;;;;;;3.53;3.23;;;1.90;54.70;;;;;;5145575;27;20484;-81
2020/12/27 12:02:51;;;;;;;6.83;3.80;;;1.90;54.40;;;;;;5132611;27;20516;-76
2020/12/27 12:05:17;;;;;;;3.50;3.20;;;1.90;54.40;;;;;;5131117;27;20456;-76
2020/12/27 12:07:44;;;;;;;4.27;2.73;;;1.90;54.30;;;;;;5131847;27;20450;-78
2020/12/27 12:10:14;;;;;;;4.00;3.70;;;1.90;54.90;;;;;;5134764;27;20459;-78
2020/12/27 12:12:42;;;;;;;5.63;3.40;;;1.90;54.60;;;;;;5137786;27;20454;-76
2020/12/27 12:15:13;;;;;;;5.50;3.47;;;2.00;54.70;;;;;;5143283;27;20444;-76
2020/12/27 12:17:41;;;;;;;5.37;3.50;;;2.00;54.60;;;;;;5134493;27;20443;-77
2020/12/27 12:20:42;;;;;;;3.33;3.07;;;1.80;54.50;;;;;;5128241;27;20482;-75
2020/12/27 12:22:54;;;;;;;4.43;3.53;;;1.80;54.40;;;;;;5127461;27;21515;-76
2020/12/27 12:25:20;;;;;;;3.97;3.57;;;1.80;54.60;;;;;;5129694;27;20459;-77
2020/12/27 12:27:48;;;;;;;3.90;3.50;;;1.70;54.70;;;;;;5127830;27;20879;-77
2020/12/27 12:30:15;;;;;;;3.23;2.90;;;1.70;55.10;;;;;;5129162;27;20502;-76
2020/12/27 12:32:42;;;;;;;3.70;3.30;;;1.80;54.80;;;;;;5125062;27;20451;-77
2020/12/27 12:35:08;;;;;;;4.47;3.77;;;1.80;54.80;;;;;;5130929;27;20512;-76
2020/12/27 12:37:36;;;;;;;4.70;3.17;;;1.80;55.00;;;;;;5126779;27;20458;-77
2020/12/27 12:40:03;;;;;;;3.77;3.30;;;1.80;54.90;;;;;;5127456;27;20462;-76
2020/12/27 12:42:35;;;;;;;4.40;3.93;;;1.80;55.10;;;;;;5126934;27;20459;-77
2020/12/27 12:45:01;;;;;;;5.30;4.17;;;1.80;54.70;;;;;;5129440;27;20444;-76
2020/12/27 12:47:27;;;;;;;5.17;3.80;;;1.80;54.90;;;;;;5128218;27;20488;-77
2020/12/27 12:49:55;;;;;;;4.07;3.40;;;1.70;54.70;;;;;;5128774;27;20495;-78
2020/12/27 12:52:21;;;;;;;6.40;3.70;;;1.70;54.80;;;;;;5126866;27;21047;-77
2020/12/27 12:54:47;;;;;;;4.43;4.03;;;1.80;55.30;;;;;;5130931;27;20482;-77
2020/12/27 12:57:14;;;;;;;5.07;3.90;;;1.60;55.10;;;;;;5130809;27;20510;-76
2020/12/27 12:59:41;;;;;;;6.17;3.80;;;1.60;55.00;;;;;;5129735;27;20529;-76
2020/12/27 13:02:07;;;;;;;5.27;4.00;;;1.60;54.80;;;;;;5128520;27;20533;-76